Time;durP1;ratioP1;P1;durP2;ratioP2;P2;SDS_P1;SDS_P2;PMS_P1;PMS_P2;Temp;Humidity;BMP_temperature;BMP_pressure;BME280_temperature;BME280_humidity;BME280_pressure;Samples;Min_cycle;Max_cycle;Signal;HPM_P1;HPM_P2
2020/12/22 00:01:21;;;;;;;16.23;10.95;;;6.80;99.90;;;;;;4965165;28;20577;-60
2020/12/22 00:03:47;;;;;;;16.98;12.10;;;6.80;99.90;;;;;;4966882;28;20030;-60
2020/12/22 00:06:22;;;;;;;15.95;11.18;;;6.80;99.90;;;;;;4964581;28;20319;-60
2020/12/22 00:08:49;;;;;;;17.92;11.27;;;6.70;99.90;;;;;;4967151;28;20035;-60
2020/12/22 00:11:15;;;;;;;19.80;12.68;;;6.70;99.90;;;;;;4963581;28;20405;-60
2020/12/22 00:13:41;;;;;;;18.15;11.73;;;6.70;99.90;;;;;;4964187;28;20033;-60
2020/12/22 00:16:06;;;;;;;15.77;11.43;;;6.70;99.90;;;;;;4964940;28;20042;-60
2020/12/22 00:18:32;;;;;;;20.10;12.80;;;6.70;99.90;;;;;;4965786;28;20030;-60
2020/12/22 00:20:58;;;;;;;17.98;11.30;;;6.70;99.90;;;;;;4965307;28;20769;-60
2020/12/22 00:23:24;;;;;;;16.30;10.95;;;6.80;99.90;;;;;;4966239;28;20030;-61
2020/12/22 00:25:50;;;;;;;18.20;10.88;;;6.70;99.90;;;;;;4967669;28;20034;-60
2020/12/22 00:28:16;;;;;;;18.52;11.05;;;6.70;99.90;;;;;;4966538;28;20228;-60
2020/12/22 00:30:43;;;;;;;14.85;10.88;;;6.70;99.90;;;;;;4967195;28;20027;-60
2020/12/22 00:33:09;;;;;;;16.25;10.77;;;6.80;99.90;;;;;;4964468;28;20050;-60
2020/12/22 00:35:35;;;;;;;15.05;10.38;;;6.80;99.90;;;;;;4968092;28;20125;-60
2020/12/22 00:38:01;;;;;;;14.80;10.30;;;6.80;99.90;;;;;;4969573;28;20129;-60
2020/12/22 00:40:28;;;;;;;15.93;10.35;;;6.80;99.90;;;;;;4972457;28;20038;-60
2020/12/22 00:42:54;;;;;;;16.27;9.02;;;6.80;99.90;;;;;;4969975;28;20039;-60
2020/12/22 00:45:21;;;;;;;16.00;9.88;;;6.80;99.90;;;;;;4967374;28;20507;-60
2020/12/22 00:47:47;;;;;;;13.25;10.20;;;6.80;99.90;;;;;;4968792;28;20034;-60
2020/12/22 00:50:13;;;;;;;12.82;9.88;;;6.80;99.90;;;;;;4967826;28;20078;-60
2020/12/22 00:52:39;;;;;;;13.68;9.38;;;6.80;99.90;;;;;;4966843;28;20485;-60
2020/12/22 00:55:05;;;;;;;16.73;10.10;;;6.90;99.90;;;;;;4967229;28;20023;-60
2020/12/22 00:57:31;;;;;;;18.25;10.73;;;6.90;99.90;;;;;;4969605;28;20061;-60
2020/12/22 00:59:57;;;;;;;12.82;9.73;;;6.80;99.90;;;;;;4967255;28;20129;-60
2020/12/22 01:02:23;;;;;;;13.73;10.02;;;6.80;99.90;;;;;;4968990;28;20671;-60
2020/12/22 01:04:50;;;;;;;12.50;8.55;;;6.80;99.90;;;;;;4965917;28;20030;-60
2020/12/22 01:07:17;;;;;;;13.15;9.40;;;6.80;99.90;;;;;;4967021;28;20644;-60
2020/12/22 01:09:44;;;;;;;14.98;9.75;;;6.80;99.90;;;;;;4967999;28;20188;-60
2020/12/22 01:12:10;;;;;;;13.70;9.15;;;6.80;99.90;;;;;;4969377;28;20031;-60
2020/12/22 01:14:36;;;;;;;13.00;9.45;;;6.80;99.90;;;;;;4965262;28;20484;-60
2020/12/22 01:17:03;;;;;;;10.70;7.85;;;6.80;99.90;;;;;;4968011;28;20391;-60
2020/12/22 01:19:28;;;;;;;12.15;7.93;;;6.90;99.90;;;;;;4967626;28;20081;-60
2020/12/22 01:21:55;;;;;;;10.77;7.90;;;6.80;99.90;;;;;;4964985;28;20127;-60
2020/12/22 01:24:22;;;;;;;13.02;8.27;;;6.80;99.90;;;;;;4968867;28;20420;-60
2020/12/22 01:26:52;;;;;;;10.25;7.78;;;6.80;99.90;;;;;;4967690;28;20034;-60
2020/12/22 01:29:18;;;;;;;11.88;8.05;;;6.80;99.90;;;;;;4969004;28;20166;-61
2020/12/22 01:31:46;;;;;;;12.68;7.78;;;6.80;99.90;;;;;;4969025;28;20026;-60
2020/12/22 01:34:12;;;;;;;12.40;8.52;;;6.80;99.90;;;;;;4967984;28;20035;-60
2020/12/22 01:36:37;;;;;;;11.05;7.53;;;6.80;99.90;;;;;;4967047;28;20038;-60
2020/12/22 01:39:04;;;;;;;12.10;7.38;;;6.80;99.90;;;;;;4966517;28;20493;-60
2020/12/22 01:41:34;;;;;;;9.25;6.93;;;6.80;99.90;;;;;;4969021;28;20050;-60
2020/12/22 01:44:00;;;;;;;;;;;6.80;99.90;;;;;;4968082;28;20035;-60
2020/12/22 01:46:31;;;;;;;9.85;6.05;;;6.90;99.90;;;;;;4967142;28;19924;-60
2020/12/22 01:48:59;;;;;;;9.23;6.82;;;6.90;99.90;;;;;;4967279;28;20568;-60
2020/12/22 01:51:27;;;;;;;8.27;6.05;;;6.90;99.90;;;;;;4969359;28;20035;-59
2020/12/22 01:53:54;;;;;;;10.38;6.35;;;6.90;99.90;;;;;;4967980;28;20030;-60
2020/12/22 01:56:20;;;;;;;8.63;6.03;;;6.90;99.90;;;;;;4967078;28;20035;-60
2020/12/22 01:58:46;;;;;;;10.93;6.38;;;6.90;99.90;;;;;;4967901;28;20438;-60
2020/12/22 02:01:12;;;;;;;8.00;5.82;;;6.90;99.90;;;;;;4966710;28;20075;-60
2020/12/22 02:03:49;;;;;;;11.48;6.38;;;7.00;99.90;;;;;;4967076;28;20039;-60
2020/12/22 02:06:14;;;;;;;10.27;6.60;;;7.00;99.90;;;;;;4967510;28;20061;-60
2020/12/22 02:08:40;;;;;;;8.27;6.00;;;7.00;99.90;;;;;;4967985;28;20098;-60
2020/12/22 02:11:06;;;;;;;9.52;5.68;;;7.00;99.90;;;;;;4966714;28;20039;-60
2020/12/22 02:13:32;;;;;;;7.47;4.90;;;7.00;99.90;;;;;;4962158;28;20038;-60
2020/12/22 02:15:57;;;;;;;7.47;5.57;;;7.00;99.90;;;;;;4966321;28;20077;-60
2020/12/22 02:18:24;;;;;;;6.15;4.55;;;7.00;99.90;;;;;;4967692;28;20509;-60
2020/12/22 02:20:51;;;;;;;6.53;4.07;;;7.00;99.90;;;;;;4966169;28;20079;-60
2020/12/22 02:23:16;;;;;;;5.72;3.67;;;7.00;99.90;;;;;;4967712;28;20569;-60
2020/12/22 02:25:47;;;;;;;7.10;4.93;;;7.00;99.90;;;;;;4967606;28;20045;-60
2020/12/22 02:28:13;;;;;;;4.93;3.95;;;7.00;99.90;;;;;;4964971;28;20034;-60
2020/12/22 02:30:40;;;;;;;5.68;3.85;;;7.10;99.90;;;;;;4966557;28;20510;-60
2020/12/22 02:33:06;;;;;;;6.63;4.28;;;7.10;99.90;;;;;;4964560;28;20344;-60
2020/12/22 02:35:32;;;;;;;7.82;4.05;;;7.10;99.90;;;;;;4965350;28;20026;-60
2020/12/22 02:37:57;;;;;;;5.07;4.07;;;7.10;99.90;;;;;;4967032;28;20043;-60
2020/12/22 02:40:23;;;;;;;4.93;3.90;;;7.10;99.90;;;;;;4966556;28;20049;-60
2020/12/22 02:42:49;;;;;;;4.50;3.67;;;7.10;99.90;;;;;;4967060;28;20989;-60
2020/12/22 02:45:15;;;;;;;5.68;3.80;;;7.10;99.90;;;;;;4964789;28;20460;-60
2020/12/22 02:47:41;;;;;;;4.20;3.40;;;7.10;99.90;;;;;;4967257;28;20027;-60
2020/12/22 02:50:06;;;;;;;6.03;4.07;;;7.20;99.90;;;;;;4966081;28;20049;-60
2020/12/22 02:52:32;;;;;;;4.82;3.50;;;7.20;99.90;;;;;;4967243;28;20367;-60
2020/12/22 02:54:58;;;;;;;5.10;3.90;;;7.20;99.90;;;;;;4965680;28;20019;-60
2020/12/22 02:57:24;;;;;;;7.93;4.20;;;7.20;99.90;;;;;;4964561;28;20031;-60
2020/12/22 02:59:49;;;;;;;5.57;3.83;;;7.20;99.90;;;;;;4966635;28;20182;-60
2020/12/22 03:02:15;;;;;;;6.15;4.43;;;7.30;99.90;;;;;;4968135;28;20114;-60
2020/12/22 03:04:41;;;;;;;5.97;4.20;;;7.30;99.90;;;;;;4965956;28;20038;-60
2020/12/22 03:07:07;;;;;;;6.35;4.88;;;7.30;99.90;;;;;;4968071;28;20053;-60
2020/12/22 03:09:33;;;;;;;8.25;4.60;;;7.30;99.90;;;;;;4966130;28;20065;-60
2020/12/22 03:11:59;;;;;;;6.40;4.38;;;7.30;99.90;;;;;;4964239;28;20027;-60
2020/12/22 03:14:24;;;;;;;6.45;4.40;;;7.30;99.90;;;;;;4966127;28;20514;-60
2020/12/22 03:16:50;;;;;;;6.43;4.53;;;7.40;99.90;;;;;;4966214;28;20034;-60
2020/12/22 03:19:16;;;;;;;8.23;5.60;;;7.40;99.90;;;;;;4966704;28;20046;-60
2020/12/22 03:21:42;;;;;;;8.43;5.13;;;7.30;99.90;;;;;;4967300;28;20030;-60
2020/12/22 03:24:07;;;;;;;7.30;5.07;;;7.40;99.90;;;;;;4963518;28;20025;-60
2020/12/22 03:26:33;;;;;;;7.30;4.55;;;7.40;99.90;;;;;;4963827;28;20110;-60
2020/12/22 03:28:59;;;;;;;8.77;4.82;;;7.40;99.90;;;;;;4964310;28;20134;-60
2020/12/22 03:31:25;;;;;;;5.60;4.05;;;7.40;99.90;;;;;;4968271;28;20474;-60
2020/12/22 03:33:50;;;;;;;4.32;3.05;;;7.40;99.90;;;;;;4964425;28;20026;-60
2020/12/22 03:36:16;;;;;;;5.38;3.40;;;7.60;99.90;;;;;;4966739;28;20062;-60
2020/12/22 03:38:42;;;;;;;5.15;3.50;;;7.60;99.90;;;;;;4966314;28;20072;-61
2020/12/22 03:41:09;;;;;;;4.45;3.20;;;7.60;99.90;;;;;;4964792;28;20418;-60
2020/12/22 03:43:35;;;;;;;2.83;2.35;;;7.70;99.90;;;;;;4964223;28;20039;-60
2020/12/22 03:46:01;;;;;;;4.28;3.33;;;7.70;99.90;;;;;;4967274;28;20478;-60
2020/12/22 03:48:27;;;;;;;2.97;2.40;;;7.70;99.90;;;;;;4966603;28;20724;-60
2020/12/22 03:50:53;;;;;;;3.65;2.55;;;7.80;99.90;;;;;;4966397;28;20034;-60
2020/12/22 03:53:19;;;;;;;3.13;2.38;;;7.80;99.90;;;;;;4964197;28;20514;-60
2020/12/22 03:55:45;;;;;;;3.15;2.28;;;7.90;99.90;;;;;;4966324;28;20062;-60
2020/12/22 03:58:11;;;;;;;3.50;2.45;;;7.90;99.90;;;;;;4964872;28;20185;-60
2020/12/22 04:00:36;;;;;;;3.17;2.05;;;7.90;99.90;;;;;;4965139;28;20121;-60
2020/12/22 04:03:02;;;;;;;4.45;2.88;;;8.00;99.90;;;;;;4966462;28;20418;-60
2020/12/22 04:05:28;;;;;;;5.80;3.05;;;8.10;99.90;;;;;;4964777;28;20049;-60
2020/12/22 04:07:54;;;;;;;4.95;3.45;;;8.10;99.90;;;;;;4965595;28;20042;-60
2020/12/22 04:10:19;;;;;;;5.28;3.22;;;8.10;99.90;;;;;;4967694;28;20035;-60
2020/12/22 04:12:45;;;;;;;6.28;3.78;;;8.10;99.90;;;;;;4966053;28;20455;-60
2020/12/22 04:15:11;;;;;;;9.52;4.45;;;8.20;99.90;;;;;;4965529;28;20041;-60
2020/12/22 04:17:41;;;;;;;8.00;4.10;;;8.20;99.90;;;;;;4962835;28;20645;-60
2020/12/22 04:20:06;;;;;;;8.68;3.60;;;8.30;99.90;;;;;;4969663;28;20051;-60
2020/12/22 04:22:32;;;;;;;10.70;5.45;;;8.30;99.90;;;;;;4970660;28;20030;-60
2020/12/22 04:24:58;;;;;;;11.10;5.40;;;8.30;99.90;;;;;;4965203;28;20034;-60
2020/12/22 04:27:23;;;;;;;9.48;5.07;;;8.40;99.90;;;;;;4966349;28;20050;-60
2020/12/22 04:29:49;;;;;;;11.40;6.05;;;8.40;99.90;;;;;;4970149;28;20030;-60
2020/12/22 04:32:15;;;;;;;15.35;6.65;;;8.50;99.90;;;;;;4969664;28;20097;-60
2020/12/22 04:34:41;;;;;;;14.73;6.88;;;8.50;99.90;;;;;;4964547;28;20031;-60
2020/12/22 04:37:07;;;;;;;15.80;7.32;;;8.60;99.90;;;;;;4969583;28;20038;-60
2020/12/22 04:39:33;;;;;;;11.95;6.63;;;8.60;99.90;;;;;;4966929;28;20379;-60
2020/12/22 04:41:59;;;;;;;12.80;6.35;;;8.60;99.90;;;;;;4969586;28;20421;-60
2020/12/22 04:44:25;;;;;;;14.10;5.65;;;8.70;99.90;;;;;;4967007;28;20561;-61
2020/12/22 04:46:52;;;;;;;13.60;5.63;;;8.80;99.90;;;;;;4969586;28;20048;-60
2020/12/22 04:49:23;;;;;;;13.38;5.60;;;8.80;99.90;;;;;;4967921;28;20100;-60
2020/12/22 04:51:51;;;;;;;11.82;5.85;;;8.70;99.90;;;;;;4963785;28;20117;-60
2020/12/22 04:54:20;;;;;;;12.50;5.53;;;8.80;99.90;;;;;;4967995;28;20031;-60
2020/12/22 04:56:47;;;;;;;9.35;4.90;;;8.90;99.90;;;;;;4969501;28;20031;-60
2020/12/22 04:59:14;;;;;;;12.85;4.70;;;8.90;99.90;;;;;;4969824;28;20038;-61
2020/12/22 05:01:41;;;;;;;13.90;5.47;;;9.00;99.90;;;;;;4967764;28;20158;-60
2020/12/22 05:04:10;;;;;;;11.38;5.18;;;9.00;99.90;;;;;;4964638;28;20035;-61
2020/12/22 05:06:36;;;;;;;13.90;6.40;;;9.00;99.90;;;;;;4964256;28;20027;-61
2020/12/22 05:09:03;;;;;;;15.40;7.95;;;9.10;99.90;;;;;;4960416;28;20042;-60
2020/12/22 05:11:29;;;;;;;18.40;7.18;;;9.10;99.90;;;;;;4965782;28;20027;-61
2020/12/22 05:13:57;;;;;;;21.88;8.23;;;9.20;99.90;;;;;;4965879;28;20129;-66
2020/12/22 05:16:26;;;;;;;26.33;8.57;;;9.20;99.90;;;;;;4960532;28;20046;-66
2020/12/22 05:18:55;;;;;;;32.00;10.35;;;9.20;99.90;;;;;;4955465;28;20031;-67
2020/12/22 05:21:21;;;;;;;23.30;9.32;;;9.20;99.90;;;;;;4961872;28;20164;-66
2020/12/22 05:23:51;;;;;;;23.63;9.20;;;9.20;99.90;;;;;;4963170;28;20063;-66
2020/12/22 05:26:21;;;;;;;25.45;8.75;;;9.20;99.90;;;;;;4967579;28;20037;-65
2020/12/22 05:28:48;;;;;;;30.83;10.52;;;9.20;99.90;;;;;;4968601;28;20030;-66
2020/12/22 05:31:14;;;;;;;20.80;9.32;;;9.20;99.90;;;;;;4967482;28;20046;-66
2020/12/22 05:33:44;;;;;;;24.98;10.40;;;9.20;99.90;;;;;;4961601;28;20935;-66
2020/12/22 05:36:10;;;;;;;18.25;8.00;;;9.20;99.90;;;;;;4969113;28;20034;-67
2020/12/22 05:38:37;;;;;;;20.50;8.40;;;9.20;99.90;;;;;;4963311;28;20058;-66
2020/12/22 05:41:06;;;;;;;19.98;7.80;;;9.10;99.90;;;;;;4967573;28;20082;-66
2020/12/22 05:43:43;;;;;;;30.75;8.52;;;9.10;99.90;;;;;;4966149;28;20034;-66
2020/12/22 05:46:09;;;;;;;14.60;7.80;;;9.10;99.90;;;;;;4969175;28;20038;-66
2020/12/22 05:48:36;;;;;;;24.48;8.65;;;9.10;99.90;;;;;;4949335;28;20030;-66
2020/12/22 05:51:03;;;;;;;23.42;7.32;;;9.10;99.90;;;;;;4964823;28;20038;-66
2020/12/22 05:53:29;;;;;;;18.45;7.63;;;9.10;99.90;;;;;;4961583;28;20232;-66
2020/12/22 05:55:56;;;;;;;18.13;6.40;;;9.10;99.90;;;;;;4965964;28;20034;-66
2020/12/22 05:58:29;;;;;;;15.07;6.60;;;9.10;99.90;;;;;;4965387;28;20314;-66
2020/12/22 06:00:55;;;;;;;20.00;7.20;;;9.10;99.90;;;;;;4967241;28;20581;-66
2020/12/22 06:03:21;;;;;;;20.63;7.68;;;9.10;99.90;;;;;;4960640;28;20528;-65
2020/12/22 06:05:47;;;;;;;18.65;7.53;;;9.10;99.90;;;;;;4959097;28;20031;-66
2020/12/22 06:08:16;;;;;;;16.23;6.25;;;9.10;99.90;;;;;;4957644;28;20026;-66
2020/12/22 06:10:43;;;;;;;12.63;4.88;;;9.10;99.90;;;;;;4965791;28;20035;-66
2020/12/22 06:13:11;;;;;;;13.13;5.28;;;9.10;99.90;;;;;;4963631;28;20419;-66
2020/12/22 06:15:38;;;;;;;14.73;5.70;;;9.10;99.90;;;;;;4963234;28;20026;-66
2020/12/22 06:18:05;;;;;;;15.15;5.45;;;9.20;99.90;;;;;;4963691;28;20524;-66
2020/12/22 06:20:31;;;;;;;16.00;5.28;;;9.10;99.90;;;;;;4963924;28;20336;-66
2020/12/22 06:23:01;;;;;;;13.95;5.95;;;9.10;99.90;;;;;;4964782;28;20037;-66
2020/12/22 06:25:27;;;;;;;16.13;5.80;;;9.20;99.90;;;;;;4977657;28;20042;-66
2020/12/22 06:27:53;;;;;;;14.60;6.38;;;9.20;99.90;;;;;;4966255;28;20137;-66
2020/12/22 06:30:36;;;;;;;11.77;4.35;;;9.20;99.90;;;;;;4968710;28;21003;-66
2020/12/22 06:33:22;;;;;;;10.20;4.68;;;9.20;99.90;;;;;;4967811;28;20444;-66
2020/12/22 06:36:09;;;;;;;10.25;3.75;;;9.20;99.90;;;;;;4967119;28;20035;-66
2020/12/22 06:39:02;;;;;;;9.57;3.33;;;9.20;99.90;;;;;;4967737;28;20065;-66
2020/12/22 06:41:33;;;;;;;10.13;3.65;;;9.20;99.90;;;;;;4967070;28;20078;-66
2020/12/22 06:44:25;;;;;;;14.57;4.07;;;9.10;99.90;;;;;;4965463;28;20030;-66
2020/12/22 06:46:56;;;;;;;16.30;4.50;;;9.10;99.90;;;;;;4968941;28;20022;-66
2020/12/22 06:50:01;;;;;;;14.32;3.83;;;9.10;99.90;;;;;;4967546;28;20042;-66
2020/12/22 06:52:34;;;;;;;17.52;4.15;;;9.10;99.90;;;;;;4967695;28;20054;-66
2020/12/22 06:55:01;;;;;;;17.58;3.55;;;9.10;99.90;;;;;;4967731;28;20113;-66
2020/12/22 06:57:49;;;;;;;16.75;4.05;;;9.10;99.90;;;;;;4967254;28;20045;-66
2020/12/22 07:00:27;;;;;;;21.92;5.03;;;9.10;99.90;;;;;;4965801;28;20042;-67
2020/12/22 07:03:08;;;;;;;16.40;3.88;;;9.10;99.90;;;;;;4967005;28;20030;-66
2020/12/22 07:05:38;;;;;;;22.63;4.50;;;9.10;99.90;;;;;;4968548;28;20031;-66
2020/12/22 07:08:05;;;;;;;21.98;4.50;;;9.10;99.90;;;;;;4968155;28;20041;-67
2020/12/22 07:10:35;;;;;;;44.05;5.50;;;9.10;99.90;;;;;;4967766;28;20027;-66
2020/12/22 07:13:05;;;;;;;19.45;3.75;;;9.10;99.90;;;;;;4966830;28;20035;-66
2020/12/22 07:15:46;;;;;;;15.48;3.65;;;9.10;99.90;;;;;;4968548;28;20041;-67
2020/12/22 07:18:23;;;;;;;13.88;3.25;;;9.00;99.90;;;;;;4968673;28;20038;-66
2020/12/22 07:20:50;;;;;;;19.65;3.53;;;9.10;99.90;;;;;;4968347;28;20026;-66
2020/12/22 07:23:16;;;;;;;21.67;4.22;;;9.00;99.90;;;;;;4997502;28;20134;-66
2020/12/22 07:25:42;;;;;;;18.20;4.10;;;9.00;99.90;;;;;;4968854;28;20472;-66
2020/12/22 07:28:10;;;;;;;24.52;4.75;;;9.00;99.90;;;;;;4967548;28;20596;-66
2020/12/22 07:30:36;;;;;;;16.05;3.55;;;9.00;99.90;;;;;;4967727;28;20529;-65
2020/12/22 07:33:03;;;;;;;14.65;3.25;;;9.00;99.90;;;;;;4966669;28;20364;-66
2020/12/22 07:35:30;;;;;;;13.50;3.30;;;9.00;99.90;;;;;;4967032;28;20541;-66
2020/12/22 07:38:07;;;;;;;13.90;3.17;;;9.00;99.90;;;;;;4968585;28;20050;-67
2020/12/22 07:40:35;;;;;;;13.23;4.07;;;9.00;99.90;;;;;;4966072;28;20809;-66
2020/12/22 07:43:12;;;;;;;11.43;3.75;;;9.00;99.90;;;;;;4967291;28;20482;-66
2020/12/22 07:45:48;;;;;;;25.08;4.05;;;8.90;99.90;;;;;;4968549;28;20022;-67
2020/12/22 07:48:14;;;;;;;20.80;4.18;;;8.90;99.90;;;;;;4971169;28;20035;-67
2020/12/22 07:50:40;;;;;;;27.33;5.05;;;8.90;99.90;;;;;;4971549;28;20069;-66
2020/12/22 07:53:06;;;;;;;28.38;4.18;;;8.90;99.90;;;;;;4970318;28;20030;-66
2020/12/22 07:55:39;;;;;;;22.48;5.38;;;8.90;99.90;;;;;;4971237;28;20899;-66
2020/12/22 07:58:07;;;;;;;21.40;4.65;;;9.00;99.90;;;;;;4970592;28;20487;-66
2020/12/22 08:00:33;;;;;;;21.63;4.00;;;8.90;99.90;;;;;;4968275;28;20814;-67
2020/12/22 08:03:14;;;;;;;14.27;3.85;;;8.90;99.90;;;;;;4968339;28;20529;-67
2020/12/22 08:05:40;;;;;;;22.45;4.05;;;8.90;99.90;;;;;;4970234;28;20073;-66
2020/12/22 08:08:06;;;;;;;20.45;4.00;;;8.90;99.90;;;;;;4971512;28;20444;-66
2020/12/22 08:10:35;;;;;;;17.50;3.08;;;8.90;99.90;;;;;;4971917;28;20034;-66
2020/12/22 08:13:03;;;;;;;23.63;3.63;;;8.90;99.90;;;;;;4969193;28;20365;-67
2020/12/22 08:15:29;;;;;;;16.17;3.13;;;8.80;99.90;;;;;;4968807;28;20478;-66
2020/12/22 08:17:56;;;;;;;19.98;3.85;;;8.80;99.90;;;;;;4970507;28;20026;-66
2020/12/22 08:20:23;;;;;;;21.45;3.92;;;8.80;99.90;;;;;;4970689;28;20038;-66
2020/12/22 08:22:49;;;;;;;22.55;3.92;;;8.70;99.90;;;;;;4967401;28;20550;-66
2020/12/22 08:25:15;;;;;;;19.75;3.30;;;8.80;99.90;;;;;;4970464;28;20121;-67
2020/12/22 08:27:41;;;;;;;26.70;3.50;;;8.80;99.90;;;;;;4968630;28;20069;-66
2020/12/22 08:30:17;;;;;;;20.20;2.75;;;8.80;99.90;;;;;;4969258;28;20117;-66
2020/12/22 08:32:45;;;;;;;16.85;2.55;;;8.80;99.90;;;;;;4970912;28;20343;-66
2020/12/22 08:35:12;;;;;;;16.88;2.72;;;8.80;99.90;;;;;;4969247;28;20101;-66
2020/12/22 08:37:38;;;;;;;25.25;3.80;;;8.80;99.90;;;;;;4971147;28;20034;-66
2020/12/22 08:40:04;;;;;;;22.83;3.13;;;8.80;99.90;;;;;;4970645;28;20073;-67
2020/12/22 08:42:31;;;;;;;15.32;2.67;;;8.70;99.90;;;;;;4968001;28;20502;-66
2020/12/22 08:44:57;;;;;;;28.73;4.40;;;8.70;99.90;;;;;;4967578;28;20034;-66
2020/12/22 08:47:23;;;;;;;15.77;2.70;;;8.70;99.90;;;;;;4970151;28;20081;-66
2020/12/22 08:49:49;;;;;;;18.38;2.53;;;8.70;99.90;;;;;;4971555;28;20125;-66
2020/12/22 08:52:17;;;;;;;14.57;2.10;;;8.60;99.90;;;;;;4968957;28;20461;-67
2020/12/22 08:54:44;;;;;;;14.27;2.13;;;8.60;99.90;;;;;;4966464;28;20108;-67
2020/12/22 08:57:15;;;;;;;13.13;2.30;;;8.60;99.90;;;;;;4968938;28;20564;-67
2020/12/22 08:59:41;;;;;;;12.40;2.13;;;8.60;99.90;;;;;;4969877;28;20086;-66
2020/12/22 09:02:29;;;;;;;14.38;2.40;;;8.60;99.90;;;;;;4968235;28;20074;-66
2020/12/22 09:04:56;;;;;;;9.88;2.17;;;8.60;99.90;;;;;;4968645;28;20340;-66
2020/12/22 09:07:25;;;;;;;14.07;1.90;;;8.70;99.90;;;;;;4968363;28;20449;-67
2020/12/22 09:09:52;;;;;;;15.70;2.33;;;8.60;99.90;;;;;;4968864;28;20124;-66
2020/12/22 09:12:18;;;;;;;13.95;2.42;;;8.80;99.90;;;;;;4967671;28;20049;-67
2020/12/22 09:14:48;;;;;;;15.50;2.63;;;8.70;99.90;;;;;;4969034;28;20035;-67
2020/12/22 09:17:36;;;;;;;12.95;2.05;;;8.70;99.90;;;;;;4970273;28;20113;-66
2020/12/22 09:20:03;;;;;;;20.35;2.03;;;8.80;99.90;;;;;;4970439;28;20489;-66
2020/12/22 09:22:30;;;;;;;12.77;2.60;;;8.80;99.90;;;;;;4966082;28;20042;-67
2020/12/22 09:24:59;;;;;;;15.68;2.47;;;8.80;99.90;;;;;;4969576;28;20034;-66
2020/12/22 09:27:36;;;;;;;15.18;2.35;;;8.80;99.90;;;;;;4969983;28;20488;-67
2020/12/22 09:30:06;;;;;;;13.13;2.38;;;8.80;99.90;;;;;;4969946;28;20021;-67
2020/12/22 09:32:32;;;;;;;10.82;1.95;;;8.80;99.90;;;;;;4953120;28;20095;-67
2020/12/22 09:34:58;;;;;;;12.88;1.77;;;8.80;99.90;;;;;;4968500;28;20022;-66
2020/12/22 09:37:25;;;;;;;14.25;2.03;;;8.70;99.90;;;;;;4969261;28;20070;-66
2020/12/22 09:39:52;;;;;;;9.10;1.98;;;8.80;99.90;;;;;;4969342;28;20038;-66
2020/12/22 09:42:22;;;;;;;13.38;1.98;;;8.80;99.90;;;;;;4970052;28;20542;-67
2020/12/22 09:44:48;;;;;;;13.55;2.10;;;8.80;99.90;;;;;;4967650;28;20721;-67
2020/12/22 09:47:14;;;;;;;11.63;1.92;;;8.80;99.90;;;;;;4968733;28;20038;-67
2020/12/22 09:49:40;;;;;;;11.95;2.50;;;8.80;99.90;;;;;;4968795;28;20592;-66
2020/12/22 09:52:06;;;;;;;13.75;2.38;;;8.80;99.90;;;;;;4968722;28;20161;-66
2020/12/22 09:54:32;;;;;;;13.02;2.40;;;8.80;99.90;;;;;;4967917;28;20108;-67
2020/12/22 09:56:58;;;;;;;19.67;2.97;;;8.80;99.90;;;;;;4968742;28;20062;-67
2020/12/22 09:59:24;;;;;;;16.13;2.72;;;8.80;99.90;;;;;;4970403;28;20105;-67
2020/12/22 10:01:51;;;;;;;13.93;3.17;;;8.80;99.90;;;;;;4967873;28;20031;-66
2020/12/22 10:04:17;;;;;;;19.05;2.70;;;8.80;99.90;;;;;;4967665;28;20026;-67
2020/12/22 10:06:43;;;;;;;16.50;2.38;;;8.80;99.90;;;;;;4970253;28;20367;-67
2020/12/22 10:09:09;;;;;;;15.25;2.78;;;8.80;99.90;;;;;;4969326;28;20050;-67
2020/12/22 10:11:36;;;;;;;15.68;2.58;;;8.80;99.90;;;;;;4968822;28;20030;-67
2020/12/22 10:14:04;;;;;;;23.58;2.85;;;8.80;99.90;;;;;;4967954;28;20023;-67
2020/12/22 10:16:30;;;;;;;12.23;2.58;;;8.80;99.90;;;;;;4965031;28;20089;-66
2020/12/22 10:18:57;;;;;;;12.88;2.22;;;8.80;99.90;;;;;;4969151;28;20030;-66
2020/12/22 10:21:23;;;;;;;18.65;2.22;;;8.80;99.90;;;;;;4968206;28;20034;-66
2020/12/22 10:23:50;;;;;;;17.33;2.78;;;8.80;99.90;;;;;;4966396;28;20031;-66
2020/12/22 10:26:17;;;;;;;19.90;3.25;;;8.70;99.90;;;;;;4969107;28;20474;-67
2020/12/22 10:28:45;;;;;;;18.42;3.00;;;8.70;99.90;;;;;;4969138;28;20568;-66
2020/12/22 10:31:18;;;;;;;20.58;2.95;;;8.70;99.90;;;;;;4968231;28;20069;-67
2020/12/22 10:33:45;;;;;;;22.58;4.22;;;8.70;99.90;;;;;;4967065;28;20039;-66
2020/12/22 10:36:16;;;;;;;23.60;3.30;;;8.70;99.90;;;;;;4969277;28;20080;-66
2020/12/22 10:38:41;;;;;;;;;;;8.60;99.90;;;;;;4968712;28;20046;-67
2020/12/22 10:41:07;;;;;;;20.73;3.50;;;8.60;99.90;;;;;;4968923;28;20340;-67
2020/12/22 10:43:33;;;;;;;22.55;3.47;;;8.60;99.90;;;;;;4967234;28;20062;-67
2020/12/22 10:45:59;;;;;;;27.92;4.72;;;8.60;99.90;;;;;;4967895;28;20088;-67
2020/12/22 10:48:25;;;;;;;15.43;3.10;;;8.60;99.90;;;;;;4966864;28;20045;-66
2020/12/22 10:50:51;;;;;;;11.10;2.65;;;8.60;99.90;;;;;;4968198;28;20363;-66
2020/12/22 10:53:17;;;;;;;15.80;3.60;;;8.60;99.90;;;;;;4967582;28;20034;-66
2020/12/22 10:55:43;;;;;;;34.20;4.15;;;8.60;99.90;;;;;;4967963;28;20027;-67
2020/12/22 10:58:09;;;;;;;16.70;3.38;;;8.60;99.90;;;;;;4968466;28;20433;-67
2020/12/22 11:00:36;;;;;;;23.30;3.45;;;8.50;99.90;;;;;;4999295;28;20241;-67
2020/12/22 11:03:06;;;;;;;35.20;3.42;;;8.50;99.90;;;;;;4964345;28;20113;-67
2020/12/22 11:08:27;;;;;;;27.15;3.78;;;8.60;99.90;;;;;;4948828;28;19910;-67
2020/12/22 11:10:53;;;;;;;26.38;3.35;;;8.60;99.90;;;;;;4967819;28;20023;-68
2020/12/22 11:13:18;;;;;;;27.60;4.78;;;8.60;99.90;;;;;;4964983;28;20038;-67
2020/12/22 11:15:44;;;;;;;22.02;4.05;;;8.70;99.90;;;;;;4968414;28;20085;-68
2020/12/22 11:18:10;;;;;;;21.42;3.92;;;8.70;99.90;;;;;;4969258;28;20042;-68
2020/12/22 11:20:37;;;;;;;29.83;3.97;;;9.00;99.90;;;;;;4969205;28;20042;-67
2020/12/22 11:23:05;;;;;;;26.17;4.63;;;9.30;99.90;;;;;;4966325;28;20049;-67
2020/12/22 11:25:30;;;;;;;31.40;5.78;;;9.40;99.90;;;;;;4968173;28;20038;-67
2020/12/22 11:27:57;;;;;;;24.52;4.47;;;9.50;99.90;;;;;;4968568;28;20486;-68
2020/12/22 11:30:24;;;;;;;22.45;4.20;;;9.70;99.90;;;;;;4968399;28;20113;-67
2020/12/22 11:32:49;;;;;;;20.77;4.65;;;9.90;99.90;;;;;;4966814;28;20053;-67
2020/12/22 11:35:16;;;;;;;23.13;4.05;;;9.70;99.90;;;;;;4966932;28;20133;-67
2020/12/22 11:37:41;;;;;;;25.05;4.10;;;9.40;99.90;;;;;;4967227;28;20510;-67
2020/12/22 11:40:07;;;;;;;28.48;5.20;;;9.30;99.90;;;;;;4966386;28;20034;-67
2020/12/22 11:42:35;;;;;;;21.17;3.47;;;9.40;99.90;;;;;;4968394;28;20039;-67
2020/12/22 11:45:01;;;;;;;17.98;3.40;;;9.60;99.90;;;;;;4967610;28;20053;-68
2020/12/22 11:47:27;;;;;;;14.15;3.08;;;9.40;99.90;;;;;;4967860;28;20095;-67
2020/12/22 11:49:53;;;;;;;28.40;4.47;;;9.30;99.90;;;;;;4965516;28;20570;-67
2020/12/22 11:52:20;;;;;;;27.00;4.80;;;9.20;99.90;;;;;;4965568;28;20046;-67
2020/12/22 11:54:46;;;;;;;32.53;4.13;;;9.90;99.90;;;;;;4965684;28;20034;-67
2020/12/22 11:57:12;;;;;;;21.73;3.95;;;10.30;99.90;;;;;;4966199;28;20434;-68
2020/12/22 11:59:37;;;;;;;21.20;3.85;;;10.20;99.90;;;;;;4968073;28;20510;-67
2020/12/22 12:02:06;;;;;;;16.73;3.50;;;9.80;99.90;;;;;;4968192;28;20117;-67
2020/12/22 12:04:33;;;;;;;22.15;3.47;;;9.60;99.90;;;;;;4967020;28;20031;-67
2020/12/22 12:06:59;;;;;;;17.75;3.50;;;9.30;99.90;;;;;;4961988;28;20041;-68
2020/12/22 12:09:25;;;;;;;13.77;2.92;;;9.20;99.90;;;;;;4966272;28;20398;-67
2020/12/22 12:11:51;;;;;;;21.63;3.15;;;9.10;99.90;;;;;;4966483;28;20042;-67
2020/12/22 12:14:18;;;;;;;17.02;4.32;;;9.00;99.90;;;;;;4967112;28;20030;-67
2020/12/22 12:16:48;;;;;;;18.45;3.40;;;8.90;99.90;;;;;;4965930;28;20450;-67
2020/12/22 12:19:15;;;;;;;27.95;3.72;;;8.80;99.90;;;;;;4966573;28;20153;-68
2020/12/22 12:21:41;;;;;;;26.20;4.22;;;8.80;99.90;;;;;;4965044;28;20157;-67
2020/12/22 12:24:07;;;;;;;26.08;4.70;;;8.70;99.90;;;;;;4964920;28;20413;-67
2020/12/22 12:26:34;;;;;;;21.25;3.85;;;8.70;99.90;;;;;;4967336;28;20638;-67
2020/12/22 12:29:00;;;;;;;19.63;4.13;;;8.70;99.90;;;;;;4967715;28;20430;-67
2020/12/22 12:31:28;;;;;;;16.58;3.40;;;8.60;99.90;;;;;;4967237;28;20035;-67
2020/12/22 12:33:54;;;;;;;20.05;3.47;;;8.60;99.90;;;;;;4968818;28;20042;-68
2020/12/22 12:36:20;;;;;;;18.27;3.13;;;8.60;99.90;;;;;;4970743;28;20026;-67
2020/12/22 12:38:45;;;;;;;14.80;2.45;;;8.50;99.90;;;;;;4970130;28;20050;-68
2020/12/22 12:41:12;;;;;;;20.90;4.38;;;8.50;99.90;;;;;;4967851;28;20049;-67
2020/12/22 12:43:38;;;;;;;23.75;2.88;;;8.50;99.90;;;;;;4967200;28;20050;-68
2020/12/22 12:46:05;;;;;;;18.38;3.05;;;8.50;99.90;;;;;;4968664;28;20413;-67
2020/12/22 12:48:32;;;;;;;11.80;3.17;;;8.50;99.90;;;;;;4970143;28;20059;-67
2020/12/22 12:50:58;;;;;;;18.00;3.45;;;8.50;99.90;;;;;;4970051;28;20312;-67
2020/12/22 12:53:24;;;;;;;18.08;3.58;;;8.60;99.90;;;;;;4970144;28;20248;-67